sensor_id;sensor_type;location;lat;lon;timestamp;pressure;altitude;pressure_sealevel;temperature;humidity
63351;BME280;64988;51.058;17.040;2023-01-31T00:03:38;99532.59;;;4.80;74.60
63351;BME280;64988;51.058;17.040;2023-01-31T00:09:08;99531.44;;;4.84;74.63
63351;BME280;64988;51.058;17.040;2023-01-31T00:14:36;99531.00;;;4.77;73.93
63351;BME280;64988;51.058;17.040;2023-01-31T00:20:04;99527.59;;;4.88;74.00
63351;BME280;64988;51.058;17.040;2023-01-31T00:25:32;99538.16;;;4.76;73.93
63351;BME280;64988;51.058;17.040;2023-01-31T00:31:00;99544.34;;;4.77;73.74
63351;BME280;64988;51.058;17.040;2023-01-31T00:36:31;99546.25;;;4.75;73.66
63351;BME280;64988;51.058;17.040;2023-01-31T00:41:59;99557.78;;;4.63;74.00
63351;BME280;64988;51.058;17.040;2023-01-31T00:47:26;99573.44;;;4.42;74.42
63351;BME280;64988;51.058;17.040;2023-01-31T00:52:54;99571.22;;;4.49;74.13
63351;BME280;64988;51.058;17.040;2023-01-31T00:58:24;99578.44;;;4.47;73.99
63351;BME280;64988;51.058;17.040;2023-01-31T01:03:55;99584.78;;;4.46;72.89
63351;BME280;64988;51.058;17.040;2023-01-31T01:09:22;99581.69;;;4.52;72.30
63351;BME280;64988;51.058;17.040;2023-01-31T01:14:51;99574.84;;;4.48;71.90
63351;BME280;64988;51.058;17.040;2023-01-31T01:20:19;99597.97;;;4.61;71.06
63351;BME280;64988;51.058;17.040;2023-01-31T01:25:47;99599.59;;;4.64;69.60
63351;BME280;64988;51.058;17.040;2023-01-31T01:31:15;99603.00;;;4.66;68.69
63351;BME280;64988;51.058;17.040;2023-01-31T01:36:44;99597.56;;;4.67;68.74
63351;BME280;64988;51.058;17.040;2023-01-31T01:42:16;99602.06;;;4.67;69.49
63351;BME280;64988;51.058;17.040;2023-01-31T01:47:58;99618.31;;;4.50;70.38
63351;BME280;64988;51.058;17.040;2023-01-31T01:53:27;99629.63;;;4.41;70.25
63351;BME280;64988;51.058;17.040;2023-01-31T01:59:04;99642.56;;;4.47;70.16
63351;BME280;64988;51.058;17.040;2023-01-31T02:04:37;99655.34;;;4.56;70.66
63351;BME280;64988;51.058;17.040;2023-01-31T02:10:15;99662.41;;;4.57;70.41
63351;BME280;64988;51.058;17.040;2023-01-31T02:15:44;99664.00;;;4.59;69.79
63351;BME280;64988;51.058;17.040;2023-01-31T02:38:28;99682.19;;;4.54;70.14
63351;BME280;64988;51.058;17.040;2023-01-31T02:44:18;99683.91;;;4.41;69.61
63351;BME280;64988;51.058;17.040;2023-01-31T02:50:33;99705.88;;;4.32;70.05
63351;BME280;64988;51.058;17.040;2023-01-31T02:56:08;99728.66;;;4.09;71.46
63351;BME280;64988;51.058;17.040;2023-01-31T03:01:53;99738.84;;;4.17;71.01
63351;BME280;64988;51.058;17.040;2023-01-31T03:07:27;99745.34;;;4.13;70.60
63351;BME280;64988;51.058;17.040;2023-01-31T03:18:56;99777.69;;;4.22;68.86
63351;BME280;64988;51.058;17.040;2023-01-31T03:24:27;99777.59;;;4.24;68.76
63351;BME280;64988;51.058;17.040;2023-01-31T03:30:04;99774.44;;;4.17;67.01
63351;BME280;64988;51.058;17.040;2023-01-31T03:35:38;99783.81;;;4.24;67.02
63351;BME280;64988;51.058;17.040;2023-01-31T03:41:13;99785.13;;;4.17;66.67
63351;BME280;64988;51.058;17.040;2023-01-31T03:46:52;99802.94;;;4.03;66.45
63351;BME280;64988;51.058;17.040;2023-01-31T03:52:48;99814.19;;;4.08;66.34
63351;BME280;64988;51.058;17.040;2023-01-31T03:58:12;99808.78;;;4.09;65.70
63351;BME280;64988;51.058;17.040;2023-01-31T04:03:50;99809.72;;;4.08;65.44
63351;BME280;64988;51.058;17.040;2023-01-31T04:09:20;99812.31;;;4.10;64.72
63351;BME280;64988;51.058;17.040;2023-01-31T04:14:49;99839.41;;;4.18;65.51
63351;BME280;64988;51.058;17.040;2023-01-31T04:20:16;99853.19;;;4.10;65.50
63351;BME280;64988;51.058;17.040;2023-01-31T04:25:45;99858.47;;;4.12;66.75
63351;BME280;64988;51.058;17.040;2023-01-31T04:31:12;99845.97;;;4.12;67.49
63351;BME280;64988;51.058;17.040;2023-01-31T04:36:40;99854.53;;;4.03;68.29
63351;BME280;64988;51.058;17.040;2023-01-31T04:42:07;99865.28;;;4.02;68.63
63351;BME280;64988;51.058;17.040;2023-01-31T04:47:35;99882.09;;;4.04;68.92
63351;BME280;64988;51.058;17.040;2023-01-31T04:53:03;99903.63;;;4.01;68.95
63351;BME280;64988;51.058;17.040;2023-01-31T04:58:31;99890.72;;;3.93;68.89
63351;BME280;64988;51.058;17.040;2023-01-31T05:03:58;99886.19;;;3.80;69.15
63351;BME280;64988;51.058;17.040;2023-01-31T05:09:26;99894.69;;;3.86;69.13
63351;BME280;64988;51.058;17.040;2023-01-31T05:14:53;99901.19;;;3.66;69.98
63351;BME280;64988;51.058;17.040;2023-01-31T05:20:20;99888.03;;;3.48;70.52
63351;BME280;64988;51.058;17.040;2023-01-31T05:25:48;99901.19;;;3.35;70.86
63351;BME280;64988;51.058;17.040;2023-01-31T05:31:16;99915.91;;;3.42;71.14
63351;BME280;64988;51.058;17.040;2023-01-31T05:36:43;99925.63;;;3.43;71.48
63351;BME280;64988;51.058;17.040;2023-01-31T05:42:11;99933.56;;;3.45;70.75
63351;BME280;64988;51.058;17.040;2023-01-31T05:47:38;99941.09;;;3.52;70.56
63351;BME280;64988;51.058;17.040;2023-01-31T05:53:06;99959.78;;;3.52;70.38
63351;BME280;64988;51.058;17.040;2023-01-31T05:58:34;99957.63;;;3.59;69.65
63351;BME280;64988;51.058;17.040;2023-01-31T06:04:09;99974.78;;;3.55;69.86
63351;BME280;64988;51.058;17.040;2023-01-31T06:09:38;99989.75;;;3.42;69.32
63351;BME280;64988;51.058;17.040;2023-01-31T06:15:07;99998.00;;;3.53;68.55
63351;BME280;64988;51.058;17.040;2023-01-31T06:20:34;100005.59;;;3.60;68.34
63351;BME280;64988;51.058;17.040;2023-01-31T06:26:01;100009.13;;;3.61;67.69
63351;BME280;64988;51.058;17.040;2023-01-31T06:31:28;100020.88;;;3.74;67.25
63351;BME280;64988;51.058;17.040;2023-01-31T06:36:57;100019.47;;;3.83;67.12
63351;BME280;64988;51.058;17.040;2023-01-31T06:42:24;100022.50;;;3.77;68.91
63351;BME280;64988;51.058;17.040;2023-01-31T06:47:52;100021.28;;;3.82;69.06
63351;BME280;64988;51.058;17.040;2023-01-31T06:53:20;100021.38;;;3.81;69.47
63351;BME280;64988;51.058;17.040;2023-01-31T06:58:48;100028.34;;;3.83;69.53
63351;BME280;64988;51.058;17.040;2023-01-31T07:04:16;100036.13;;;3.88;69.72
63351;BME280;64988;51.058;17.040;2023-01-31T07:09:44;100047.03;;;3.99;69.55
63351;BME280;64988;51.058;17.040;2023-01-31T07:15:12;100050.81;;;4.10;68.99
63351;BME280;64988;51.058;17.040;2023-01-31T07:20:41;100054.53;;;4.23;68.72
63351;BME280;64988;51.058;17.040;2023-01-31T07:26:09;100063.22;;;4.27;68.16
63351;BME280;64988;51.058;17.040;2023-01-31T07:31:37;100075.41;;;4.33;68.33
63351;BME280;64988;51.058;17.040;2023-01-31T07:37:05;100089.16;;;4.56;67.92
63351;BME280;64988;51.058;17.040;2023-01-31T07:42:33;100098.69;;;4.76;67.27
63351;BME280;64988;51.058;17.040;2023-01-31T07:48:00;100108.47;;;5.07;66.14
63351;BME280;64988;51.058;17.040;2023-01-31T07:53:30;100104.34;;;5.59;65.40
63351;BME280;64988;51.058;17.040;2023-01-31T07:58:58;100113.53;;;5.55;63.56
63351;BME280;64988;51.058;17.040;2023-01-31T08:04:26;100099.78;;;5.61;63.56
63351;BME280;64988;51.058;17.040;2023-01-31T08:09:53;100103.44;;;6.03;62.99
63351;BME280;64988;51.058;17.040;2023-01-31T08:15:20;100101.41;;;6.61;58.75
63351;BME280;64988;51.058;17.040;2023-01-31T08:20:48;100117.78;;;6.57;60.06
63351;BME280;64988;51.058;17.040;2023-01-31T08:26:17;100122.00;;;6.47;59.94
63351;BME280;64988;51.058;17.040;2023-01-31T08:31:45;100124.69;;;6.47;61.78
63351;BME280;64988;51.058;17.040;2023-01-31T08:37:12;100119.97;;;6.64;60.42
63351;BME280;64988;51.058;17.040;2023-01-31T08:42:40;100121.28;;;6.45;60.44
63351;BME280;64988;51.058;17.040;2023-01-31T08:48:07;100123.41;;;6.66;61.16
63351;BME280;64988;51.058;17.040;2023-01-31T08:53:37;100122.09;;;7.25;59.68
63351;BME280;64988;51.058;17.040;2023-01-31T08:59:05;100118.56;;;8.38;56.51
63351;BME280;64988;51.058;17.040;2023-01-31T09:04:33;100131.31;;;9.77;51.18
63351;BME280;64988;51.058;17.040;2023-01-31T09:10:01;100138.09;;;9.94;48.88
63351;BME280;64988;51.058;17.040;2023-01-31T09:15:29;100150.13;;;9.20;49.85
63351;BME280;64988;51.058;17.040;2023-01-31T09:26:33;100162.47;;;9.46;49.37
63351;BME280;64988;51.058;17.040;2023-01-31T09:32:00;100170.72;;;10.24;48.91
63351;BME280;64988;51.058;17.040;2023-01-31T09:37:31;100159.91;;;10.13;48.52
63351;BME280;64988;51.058;17.040;2023-01-31T09:43:01;100156.16;;;10.27;48.53
63351;BME280;64988;51.058;17.040;2023-01-31T09:48:33;100150.75;;;10.38;48.65
63351;BME280;64988;51.058;17.040;2023-01-31T09:54:17;100158.69;;;9.95;49.63
63351;BME280;64988;51.058;17.040;2023-01-31T10:10:54;100154.19;;;8.42;55.22
63351;BME280;64988;51.058;17.040;2023-01-31T10:16:34;100152.69;;;8.74;55.05
63351;BME280;64988;51.058;17.040;2023-01-31T10:22:14;100154.72;;;9.07;54.11
63351;BME280;64988;51.058;17.040;2023-01-31T10:28:09;100142.94;;;9.08;54.04
63351;BME280;64988;51.058;17.040;2023-01-31T10:33:47;100144.56;;;8.87;54.74
63351;BME280;64988;51.058;17.040;2023-01-31T10:39:20;100132.72;;;9.13;55.29
63351;BME280;64988;51.058;17.040;2023-01-31T10:50:47;100123.88;;;8.64;56.07
63351;BME280;64988;51.058;17.040;2023-01-31T10:56:34;100120.22;;;8.65;56.10
63351;BME280;64988;51.058;17.040;2023-01-31T11:02:03;100115.28;;;8.82;54.90
63351;BME280;64988;51.058;17.040;2023-01-31T11:07:31;100102.72;;;9.18;54.43
63351;BME280;64988;51.058;17.040;2023-01-31T11:13:02;100091.38;;;9.82;53.56
63351;BME280;64988;51.058;17.040;2023-01-31T11:18:42;100103.59;;;9.64;53.38
63351;BME280;64988;51.058;17.040;2023-01-31T11:24:24;100101.63;;;9.66;52.77
63351;BME280;64988;51.058;17.040;2023-01-31T11:29:56;100080.91;;;9.44;53.53
63351;BME280;64988;51.058;17.040;2023-01-31T11:35:29;100068.44;;;9.55;54.07
63351;BME280;64988;51.058;17.040;2023-01-31T11:40:58;100056.78;;;9.43;53.80
63351;BME280;64988;51.058;17.040;2023-01-31T11:46:25;100060.00;;;9.13;54.94
63351;BME280;64988;51.058;17.040;2023-01-31T11:51:52;100070.59;;;8.69;56.48
63351;BME280;64988;51.058;17.040;2023-01-31T11:57:23;100063.50;;;8.19;58.26
63351;BME280;64988;51.058;17.040;2023-01-31T12:03:13;100046.50;;;7.95;59.94
63351;BME280;64988;51.058;17.040;2023-01-31T12:08:41;100038.78;;;7.77;61.79
63351;BME280;64988;51.058;17.040;2023-01-31T12:14:13;100034.91;;;7.44;63.58
63351;BME280;64988;51.058;17.040;2023-01-31T12:31:01;100017.75;;;7.95;63.06
63351;BME280;64988;51.058;17.040;2023-01-31T12:42:45;99990.97;;;8.06;61.60
63351;BME280;64988;51.058;17.040;2023-01-31T12:48:43;99998.13;;;7.95;62.18
63351;BME280;64988;51.058;17.040;2023-01-31T13:00:44;99974.19;;;7.66;62.61
63351;BME280;64988;51.058;17.040;2023-01-31T13:06:21;99976.59;;;7.58;63.46
63351;BME280;64988;51.058;17.040;2023-01-31T13:12:20;99984.44;;;7.49;64.02
63351;BME280;64988;51.058;17.040;2023-01-31T13:17:51;99971.47;;;7.30;65.19
63351;BME280;64988;51.058;17.040;2023-01-31T13:23:28;99958.38;;;7.13;65.03
63351;BME280;64988;51.058;17.040;2023-01-31T13:35:04;99940.66;;;7.23;64.22
63351;BME280;64988;51.058;17.040;2023-01-31T13:40:47;99942.16;;;7.14;64.35
63351;BME280;64988;51.058;17.040;2023-01-31T13:46:21;99931.53;;;7.00;65.18
63351;BME280;64988;51.058;17.040;2023-01-31T13:58:03;99923.28;;;6.91;65.73
63351;BME280;64988;51.058;17.040;2023-01-31T14:15:56;99912.09;;;6.71;65.68
63351;BME280;64988;51.058;17.040;2023-01-31T14:26:58;99886.53;;;6.41;67.22
63351;BME280;64988;51.058;17.040;2023-01-31T14:32:37;99888.97;;;6.31;68.14
63351;BME280;64988;51.058;17.040;2023-01-31T14:50:31;99858.81;;;6.15;69.56
63351;BME280;64988;51.058;17.040;2023-01-31T15:01:53;99857.94;;;6.14;69.74
63351;BME280;64988;51.058;17.040;2023-01-31T15:07:22;99859.44;;;6.06;70.22
63351;BME280;64988;51.058;17.040;2023-01-31T15:12:57;99848.81;;;6.04;70.05
63351;BME280;64988;51.058;17.040;2023-01-31T15:18:27;99846.56;;;5.98;70.18
63351;BME280;64988;51.058;17.040;2023-01-31T15:23:57;99852.13;;;5.95;70.64
63351;BME280;64988;51.058;17.040;2023-01-31T15:29:30;99846.03;;;5.93;71.05
63351;BME280;64988;51.058;17.040;2023-01-31T15:35:12;99847.94;;;5.91;72.04
63351;BME280;64988;51.058;17.040;2023-01-31T15:40:40;99844.63;;;5.88;72.42
63351;BME280;64988;51.058;17.040;2023-01-31T15:46:18;99852.75;;;5.86;72.34
63351;BME280;64988;51.058;17.040;2023-01-31T15:52:11;99846.81;;;5.81;72.54
63351;BME280;64988;51.058;17.040;2023-01-31T15:57:52;99840.63;;;5.66;73.44
63351;BME280;64988;51.058;17.040;2023-01-31T16:03:26;99841.66;;;5.51;74.27
63351;BME280;64988;51.058;17.040;2023-01-31T16:08:57;99834.72;;;5.35;74.30
63351;BME280;64988;51.058;17.040;2023-01-31T16:14:27;99827.78;;;5.18;74.69
63351;BME280;64988;51.058;17.040;2023-01-31T16:19:56;99818.72;;;5.06;74.87
63351;BME280;64988;51.058;17.040;2023-01-31T16:25:24;99807.56;;;5.00;75.16
63351;BME280;64988;51.058;17.040;2023-01-31T16:30:53;99795.06;;;4.86;76.04
63351;BME280;64988;51.058;17.040;2023-01-31T16:36:33;99797.38;;;4.78;76.68
63351;BME280;64988;51.058;17.040;2023-01-31T16:42:22;99787.81;;;4.74;76.52
63351;BME280;64988;51.058;17.040;2023-01-31T16:47:51;99774.00;;;4.67;76.71
63351;BME280;64988;51.058;17.040;2023-01-31T16:58:52;99774.19;;;4.64;76.73
63351;BME280;64988;51.058;17.040;2023-01-31T17:04:21;99764.16;;;4.68;76.64
63351;BME280;64988;51.058;17.040;2023-01-31T17:09:56;99757.75;;;4.70;76.59
63351;BME280;64988;51.058;17.040;2023-01-31T17:15:25;99746.31;;;4.68;76.79
63351;BME280;64988;51.058;17.040;2023-01-31T17:20:53;99739.91;;;4.71;76.54
63351;BME280;64988;51.058;17.040;2023-01-31T17:26:22;99718.22;;;4.75;76.57
63351;BME280;64988;51.058;17.040;2023-01-31T17:31:50;99713.84;;;4.74;76.68
63351;BME280;64988;51.058;17.040;2023-01-31T17:37:18;99713.25;;;4.84;76.16
63351;BME280;64988;51.058;17.040;2023-01-31T17:43:02;99699.88;;;4.84;76.13
63351;BME280;64988;51.058;17.040;2023-01-31T17:48:30;99692.31;;;4.90;75.99
63351;BME280;64988;51.058;17.040;2023-01-31T17:53:58;99683.69;;;4.99;75.38
63351;BME280;64988;51.058;17.040;2023-01-31T17:59:25;99687.00;;;5.03;75.48
63351;BME280;64988;51.058;17.040;2023-01-31T18:04:53;99670.75;;;5.06;75.71
63351;BME280;64988;51.058;17.040;2023-01-31T18:10:21;99665.88;;;5.12;75.28
63351;BME280;64988;51.058;17.040;2023-01-31T18:16:00;99661.72;;;5.21;74.80
63351;BME280;64988;51.058;17.040;2023-01-31T18:21:29;99662.16;;;5.27;75.02
63351;BME280;64988;51.058;17.040;2023-01-31T18:26:58;99664.19;;;5.37;74.27
63351;BME280;64988;51.058;17.040;2023-01-31T18:32:26;99663.28;;;5.50;74.49
63351;BME280;64988;51.058;17.040;2023-01-31T18:37:55;99650.75;;;5.51;73.80
63351;BME280;64988;51.058;17.040;2023-01-31T18:43:28;99642.31;;;5.57;74.15
63351;BME280;64988;51.058;17.040;2023-01-31T18:48:59;99636.84;;;5.58;73.12
63351;BME280;64988;51.058;17.040;2023-01-31T18:54:27;99618.63;;;5.76;74.78
63351;BME280;64988;51.058;17.040;2023-01-31T18:59:54;99619.81;;;5.72;73.04
63351;BME280;64988;51.058;17.040;2023-01-31T19:05:22;99640.41;;;5.71;72.93
63351;BME280;64988;51.058;17.040;2023-01-31T19:10:49;99648.53;;;5.70;73.44
63351;BME280;64988;51.058;17.040;2023-01-31T19:16:22;99643.50;;;5.65;72.82
63351;BME280;64988;51.058;17.040;2023-01-31T19:21:51;99639.19;;;5.75;73.02
63351;BME280;64988;51.058;17.040;2023-01-31T19:27:18;99627.31;;;5.79;72.83
63351;BME280;64988;51.058;17.040;2023-01-31T19:32:47;99605.59;;;5.84;72.70
63351;BME280;64988;51.058;17.040;2023-01-31T19:38:16;99614.94;;;5.91;72.69
63351;BME280;64988;51.058;17.040;2023-01-31T19:43:48;99612.69;;;5.98;73.06
63351;BME280;64988;51.058;17.040;2023-01-31T19:49:16;99609.47;;;5.93;72.92
63351;BME280;64988;51.058;17.040;2023-01-31T19:54:44;99594.22;;;6.06;72.74
63351;BME280;64988;51.058;17.040;2023-01-31T20:00:11;99593.28;;;6.07;72.76
63351;BME280;64988;51.058;17.040;2023-01-31T20:05:39;99566.13;;;6.11;73.56
63351;BME280;64988;51.058;17.040;2023-01-31T20:11:08;99568.53;;;6.03;73.54
63351;BME280;64988;51.058;17.040;2023-01-31T20:16:36;99561.63;;;6.12;73.53
63351;BME280;64988;51.058;17.040;2023-01-31T20:22:04;99555.78;;;6.07;73.29
63351;BME280;64988;51.058;17.040;2023-01-31T20:27:31;99573.88;;;6.03;73.81
63351;BME280;64988;51.058;17.040;2023-01-31T20:33:01;99540.56;;;5.95;73.92
63351;BME280;64988;51.058;17.040;2023-01-31T20:38:29;99547.63;;;5.96;73.99
63351;BME280;64988;51.058;17.040;2023-01-31T20:43:58;99557.50;;;5.95;73.50
63351;BME280;64988;51.058;17.040;2023-01-31T20:49:25;99541.19;;;5.98;74.01
63351;BME280;64988;51.058;17.040;2023-01-31T20:54:53;99552.47;;;6.03;73.03
63351;BME280;64988;51.058;17.040;2023-01-31T21:00:21;99558.09;;;6.11;72.83
63351;BME280;64988;51.058;17.040;2023-01-31T21:05:49;99556.06;;;6.15;72.54
63351;BME280;64988;51.058;17.040;2023-01-31T21:11:17;99560.09;;;6.20;72.33
63351;BME280;64988;51.058;17.040;2023-01-31T21:16:44;99549.81;;;6.27;72.41
63351;BME280;64988;51.058;17.040;2023-01-31T21:22:12;99548.75;;;6.29;72.16
63351;BME280;64988;51.058;17.040;2023-01-31T21:27:39;99525.25;;;6.33;72.15
63351;BME280;64988;51.058;17.040;2023-01-31T21:33:07;99536.47;;;6.38;72.30
63351;BME280;64988;51.058;17.040;2023-01-31T21:38:35;99541.53;;;6.43;72.26
63351;BME280;64988;51.058;17.040;2023-01-31T21:44:03;99540.88;;;6.39;72.92
63351;BME280;64988;51.058;17.040;2023-01-31T21:49:31;99532.63;;;6.42;72.89
63351;BME280;64988;51.058;17.040;2023-01-31T21:54:59;99526.91;;;6.47;72.57
63351;BME280;64988;51.058;17.040;2023-01-31T22:00:27;99524.22;;;6.47;71.68
63351;BME280;64988;51.058;17.040;2023-01-31T22:05:59;99490.34;;;6.22;71.82
63351;BME280;64988;51.058;17.040;2023-01-31T22:11:28;99498.06;;;5.90;72.56
63351;BME280;64988;51.058;17.040;2023-01-31T22:17:02;99519.38;;;5.66;73.19
63351;BME280;64988;51.058;17.040;2023-01-31T22:22:29;99525.19;;;5.48;74.12
63351;BME280;64988;51.058;17.040;2023-01-31T22:27:56;99523.16;;;5.39;74.61
63351;BME280;64988;51.058;17.040;2023-01-31T22:33:23;99529.13;;;5.55;74.06
63351;BME280;64988;51.058;17.040;2023-01-31T22:38:51;99506.09;;;5.77;73.25
63351;BME280;64988;51.058;17.040;2023-01-31T22:44:19;99503.94;;;5.82;71.96
63351;BME280;64988;51.058;17.040;2023-01-31T22:49:47;99493.97;;;5.97;71.00
63351;BME280;64988;51.058;17.040;2023-01-31T22:55:14;99499.50;;;6.07;70.01
63351;BME280;64988;51.058;17.040;2023-01-31T23:00:41;99483.91;;;6.24;69.10
63351;BME280;64988;51.058;17.040;2023-01-31T23:06:10;99628.75;;;4.81;77.35
63351;BME280;64988;51.058;17.040;2023-01-31T23:11:38;99604.53;;;15.04;66.46
63351;BME280;64988;51.058;17.040;2023-01-31T23:17:07;99592.69;;;14.63;64.30
63351;BME280;64988;51.058;17.040;2023-01-31T23:23:10;99478.69;;;33.07;18.49
63351;BME280;64988;51.058;17.040;2023-01-31T23:28:37;99490.38;;;29.13;20.93
63351;BME280;64988;51.058;17.040;2023-01-31T23:34:05;99494.25;;;29.92;20.98
63351;BME280;64988;51.058;17.040;2023-01-31T23:39:33;99471.16;;;27.01;23.59
63351;BME280;64988;51.058;17.040;2023-01-31T23:45:00;99461.66;;;28.04;23.00
63351;BME280;64988;51.058;17.040;2023-01-31T23:50:27;99487.47;;;27.71;24.02
63351;BME280;64988;51.058;17.040;2023-01-31T23:55:54;99483.16;;;27.19;22.69
